createdAt,value
2022-12-08T00:01:54.426Z,88.70
2022-12-08T00:07:17.149Z,89.53
2022-12-08T00:12:21.423Z,89.57
2022-12-08T00:17:25.404Z,88.42
2022-12-08T00:22:34.906Z,89.82
2022-12-08T00:27:39.035Z,87.60
2022-12-08T00:32:43.572Z,89.06
2022-12-08T00:37:49.205Z,88.78
2022-12-08T00:42:53.314Z,90.90
2022-12-08T00:47:57.597Z,90.70
2022-12-08T00:53:03.243Z,90.59
2022-12-08T00:58:07.518Z,91.72
2022-12-08T01:03:12.078Z,89.46
2022-12-08T01:08:17.609Z,86.57
2022-12-08T01:13:22.013Z,87.09
2022-12-08T01:18:26.459Z,87.05
2022-12-08T01:23:32.048Z,85.58
2022-12-08T01:28:36.283Z,85.00
2022-12-08T01:33:41.165Z,85.32
2022-12-08T01:38:47.807Z,84.92
2022-12-08T01:44:28.044Z,83.63
2022-12-08T01:49:37.150Z,83.89
2022-12-08T01:54:47.537Z,84.97
2022-12-08T01:59:57.397Z,84.37
2022-12-08T02:05:02.902Z,84.52
2022-12-08T02:10:10.273Z,83.98
2022-12-08T02:15:15.707Z,84.58
2022-12-08T02:20:39.303Z,86.93
2022-12-08T02:26:03.240Z,89.95
2022-12-08T02:31:22.382Z,89.26
2022-12-08T02:36:33.827Z,89.47
2022-12-08T02:41:43.569Z,89.39
2022-12-08T02:46:53.328Z,87.83
2022-12-08T02:52:08.702Z,85.82
2022-12-08T02:57:31.345Z,87.29
2022-12-08T03:02:47.015Z,88.58
2022-12-08T03:07:59.573Z,89.28
2022-12-08T03:13:09.438Z,87.82
2022-12-08T03:18:17.268Z,85.76
2022-12-08T03:23:25.468Z,85.49
2022-12-08T03:28:29.616Z,86.04
2022-12-08T03:33:37.679Z,83.90
2022-12-08T03:38:45.958Z,83.07
2022-12-08T03:43:52.018Z,83.01
2022-12-08T03:48:56.251Z,82.31
2022-12-08T03:54:01.894Z,80.50
2022-12-08T03:59:07.518Z,82.68
2022-12-08T04:04:12.493Z,84.37
2022-12-08T04:09:18.868Z,86.42
2022-12-08T04:14:24.167Z,85.79
2022-12-08T04:19:28.645Z,85.93
2022-12-08T04:24:34.386Z,86.89
2022-12-08T04:29:38.516Z,86.64
2022-12-08T04:34:42.709Z,86.57
2022-12-08T04:39:48.148Z,88.10
2022-12-08T04:44:52.378Z,90.99
2022-12-08T04:49:56.641Z,88.73
2022-12-08T04:55:02.438Z,87.91
2022-12-08T05:00:10.508Z,88.93
2022-12-08T05:05:14.692Z,89.23
2022-12-08T05:10:21.228Z,88.36
2022-12-08T05:15:26.131Z,88.95
2022-12-08T05:20:30.784Z,87.35
2022-12-08T05:25:36.673Z,87.94
2022-12-08T05:30:43.878Z,88.63
2022-12-08T05:35:47.955Z,88.86
2022-12-08T05:40:53.554Z,87.23
2022-12-08T05:45:57.767Z,86.92
2022-12-08T05:51:02.235Z,89.01
2022-12-08T05:56:08.419Z,86.77
2022-12-08T06:01:20.959Z,87.04
2022-12-08T06:06:25.610Z,87.48
2022-12-08T06:11:33.527Z,86.38
2022-12-08T06:16:39.538Z,86.78
2022-12-08T06:21:44.367Z,84.59
2022-12-08T06:26:51.871Z,84.93
2022-12-08T06:31:56.415Z,84.05
2022-12-08T06:37:02.812Z,83.97
2022-12-08T06:42:26.015Z,83.29
2022-12-08T06:47:30.525Z,81.85
2022-12-08T06:52:37.682Z,83.06
2022-12-08T06:57:46.611Z,81.52
2022-12-08T07:02:52.058Z,78.50
2022-12-08T07:07:56.408Z,76.40
2022-12-08T07:13:04.957Z,74.32
2022-12-08T07:18:10.025Z,74.57
2022-12-08T07:23:15.399Z,74.18
2022-12-08T07:28:21.436Z,71.82
2022-12-08T07:33:26.386Z,69.88
2022-12-08T07:38:31.107Z,66.23
2022-12-08T07:43:37.180Z,63.28
2022-12-08T07:48:42.520Z,61.51
2022-12-08T07:53:53.363Z,60.98
2022-12-08T07:59:01.002Z,58.83
2022-12-08T08:04:11.087Z,59.33
2022-12-08T08:09:15.687Z,59.69
2022-12-08T08:14:22.409Z,59.91
2022-12-08T08:19:26.501Z,58.96
2022-12-08T08:24:30.509Z,59.05
2022-12-08T08:29:35.997Z,56.96
2022-12-08T08:34:40.366Z,59.60
2022-12-08T08:39:45.052Z,64.69
2022-12-08T08:44:51.452Z,66.64
2022-12-08T08:49:55.925Z,66.35
2022-12-08T08:54:59.994Z,64.75
2022-12-08T09:00:10.363Z,63.42
2022-12-08T09:05:16.537Z,62.07
2022-12-08T09:10:21.189Z,58.88
2022-12-08T09:15:26.775Z,59.91
2022-12-08T09:20:31.115Z,57.06
2022-12-08T09:25:35.587Z,58.93
2022-12-08T09:30:42.112Z,58.44
2022-12-08T09:35:46.326Z,53.92
2022-12-08T09:40:52.795Z,51.49
2022-12-08T09:46:00.798Z,46.92
2022-12-08T09:51:07.066Z,47.00
2022-12-08T09:56:15.627Z,45.02
2022-12-08T10:01:22.548Z,49.12
2022-12-08T10:06:33.138Z,54.88
2022-12-08T10:11:45.397Z,57.14
2022-12-08T10:16:53.818Z,59.03
2022-12-08T10:22:01.487Z,59.45
2022-12-08T10:27:09.868Z,61.86
2022-12-08T10:32:19.641Z,62.30
2022-12-08T10:37:25.642Z,60.75
2022-12-08T10:42:36.486Z,58.05
2022-12-08T10:47:45.680Z,59.83
2022-12-08T10:52:58.454Z,60.35
2022-12-08T10:58:05.049Z,61.10
2022-12-08T11:03:29.730Z,60.60
2022-12-08T11:08:34.487Z,57.95
2022-12-08T11:13:42.478Z,56.55
2022-12-08T11:18:57.348Z,56.89
2022-12-08T11:24:19.942Z,56.02
2022-12-08T11:29:24.639Z,56.75
2022-12-08T11:34:36.791Z,55.98
2022-12-08T11:39:49.983Z,55.46
2022-12-08T11:44:59.261Z,55.08
2022-12-08T11:50:18.131Z,55.33
2022-12-08T11:55:37.174Z,56.08
2022-12-08T12:00:45.658Z,56.89
2022-12-08T12:06:38.168Z,58.49
2022-12-08T12:12:09.528Z,58.68
2022-12-08T12:17:32.167Z,59.53
2022-12-08T12:22:39.160Z,60.17
2022-12-08T12:27:45.885Z,61.49
2022-12-08T12:32:55.754Z,62.28
2022-12-08T12:38:08.639Z,63.52
2022-12-08T12:43:29.543Z,64.47
2022-12-08T12:48:33.555Z,65.63
2022-12-08T12:53:52.304Z,66.30
2022-12-08T12:58:56.762Z,67.03
2022-12-08T13:04:09.420Z,67.59
2022-12-08T13:09:29.656Z,68.27
2022-12-08T13:14:37.121Z,68.11
2022-12-08T13:19:44.390Z,67.58
2022-12-08T13:24:53.995Z,67.66
2022-12-08T13:30:35.117Z,68.33
2022-12-08T13:35:47.467Z,68.83
2022-12-08T13:40:55.042Z,69.63
2022-12-08T13:57:10.130Z,75.02
2022-12-08T14:02:19.619Z,74.93
2022-12-08T14:07:26.000Z,74.07
2022-12-08T14:12:32.995Z,74.24
2022-12-08T14:17:37.272Z,74.69
2022-12-08T14:22:42.257Z,76.05
2022-12-08T14:27:51.881Z,77.06
2022-12-08T14:32:58.983Z,77.02
2022-12-08T14:38:05.977Z,78.60
2022-12-08T14:43:18.367Z,79.19
2022-12-08T14:48:25.399Z,80.73
2022-12-08T14:53:40.096Z,81.85
2022-12-08T14:58:46.517Z,82.95
2022-12-08T15:03:51.771Z,83.20
2022-12-08T15:09:00.145Z,82.73
2022-12-08T15:14:29.305Z,81.20
2022-12-08T15:19:35.529Z,81.88
2022-12-08T15:24:42.002Z,82.43
2022-12-08T15:29:48.121Z,82.90
2022-12-08T15:34:52.155Z,83.86
2022-12-08T15:39:56.353Z,85.22
2022-12-08T15:45:01.861Z,86.66
2022-12-08T15:50:09.328Z,86.64
2022-12-08T15:55:14.823Z,87.08
2022-12-08T16:06:50.837Z,86.15
2022-12-08T16:12:05.155Z,86.14
2022-12-08T16:17:12.913Z,86.34
2022-12-08T16:33:11.086Z,88.53
2022-12-08T16:38:16.852Z,87.96
2022-12-08T16:43:21.111Z,89.67
2022-12-08T16:48:28.565Z,88.54
2022-12-08T16:53:32.517Z,89.00
2022-12-08T16:58:39.251Z,88.59
2022-12-08T17:04:01.321Z,89.57
2022-12-08T17:09:12.005Z,89.62
2022-12-08T17:14:16.447Z,86.81
2022-12-08T17:19:22.123Z,89.10
2022-12-08T17:24:29.100Z,90.03
2022-12-08T17:29:33.314Z,91.61
2022-12-08T17:34:39.224Z,93.37
2022-12-08T17:39:43.550Z,92.32
2022-12-08T17:44:47.720Z,91.08
2022-12-08T17:49:56.211Z,91.57
2022-12-08T17:55:00.238Z,91.25
2022-12-08T18:00:06.490Z,90.35
2022-12-08T18:05:17.421Z,92.13
2022-12-08T18:10:21.606Z,93.52
2022-12-08T18:15:26.373Z,93.36
2022-12-08T18:20:31.893Z,93.28
2022-12-08T18:25:35.979Z,93.12
2022-12-08T18:30:40.976Z,92.84
2022-12-08T18:35:46.829Z,92.29
2022-12-08T18:40:51.065Z,95.76
2022-12-08T18:46:02.702Z,95.29
2022-12-08T18:51:12.560Z,94.86
2022-12-08T18:56:23.293Z,93.18
2022-12-08T19:01:27.371Z,92.14
2022-12-08T19:06:33.759Z,91.00
2022-12-08T19:11:39.608Z,89.31
2022-12-08T19:16:45.014Z,90.53
2022-12-08T19:21:53.339Z,92.45
2022-12-08T19:26:58.668Z,91.63
2022-12-08T19:32:05.238Z,92.53
2022-12-08T19:37:13.837Z,93.01
2022-12-08T19:42:38.012Z,93.82
2022-12-08T19:47:43.693Z,94.95
2022-12-08T19:52:49.438Z,94.29
2022-12-08T19:57:54.702Z,91.51
2022-12-08T20:02:59.796Z,92.06
2022-12-08T20:08:07.699Z,93.00
2022-12-08T20:13:31.503Z,92.32
2022-12-08T20:18:36.727Z,94.15
2022-12-08T20:23:42.504Z,96.53
2022-12-08T20:28:46.993Z,97.59
2022-12-08T20:33:51.250Z,98.58
2022-12-08T20:38:57.066Z,99.60
2022-12-08T20:44:01.600Z,98.06
2022-12-08T20:49:06.853Z,98.22
2022-12-08T20:54:12.826Z,97.60
2022-12-08T20:59:18.636Z,97.09
2022-12-08T21:04:24.003Z,95.15
2022-12-08T21:09:30.351Z,94.09
2022-12-08T21:14:36.585Z,93.01
2022-12-08T21:19:41.166Z,93.46
2022-12-08T21:24:46.987Z,92.60
2022-12-08T21:29:51.454Z,93.67
2022-12-08T21:34:57.637Z,97.04
2022-12-08T21:40:05.117Z,96.09
2022-12-08T21:45:10.946Z,94.39
2022-12-08T21:50:16.140Z,95.37
2022-12-08T21:55:23.791Z,94.06
2022-12-08T22:00:28.641Z,95.41
2022-12-08T22:05:33.448Z,95.59
2022-12-08T22:10:39.988Z,95.15
2022-12-08T22:15:44.654Z,94.61
2022-12-08T22:20:49.082Z,94.99
2022-12-08T22:25:59.681Z,94.84
2022-12-08T22:31:10.056Z,95.82
2022-12-08T22:36:16.517Z,95.19
2022-12-08T22:41:23.503Z,94.23
2022-12-08T22:46:28.661Z,94.57
2022-12-08T22:51:32.833Z,95.01
2022-12-08T22:56:38.694Z,93.12
2022-12-08T23:01:44.432Z,95.22
2022-12-08T23:06:49.322Z,94.88
2022-12-08T23:11:55.964Z,95.71
2022-12-08T23:17:00.250Z,96.48
2022-12-08T23:22:05.940Z,96.06
2022-12-08T23:27:11.695Z,96.11
2022-12-08T23:32:16.367Z,97.12
2022-12-08T23:37:20.644Z,96.38
2022-12-08T23:42:26.293Z,96.66
2022-12-08T23:47:31.658Z,95.26
2022-12-08T23:52:37.054Z,94.75
2022-12-08T23:57:44.633Z,91.86
